Ana Sayfa
METAR-TAF:

METAR-TAF

Havaalanları :

William H. Morse State Airport

Bennington, Vermont, Amerika Birleşik Devletleri

Enlem: 42-53-24N, Boylam: 073-14-47W, yükseklik: 252 m

Güncel hava durumu gözlemi

Rapor saat 23:54 UTC de 53 dakika önce yapıldı.
Rüzgar batıdan 10 kt ve 18 kt'a kadar ani rüzgarlar, güney ve batı/kuzeybatı arasında değişken
Sıcaklık -3°C
Nem 54%
Basınç 1002 hPa
Görüş mesafesi: 16.1 km
4900 ft yükseklikte çok bulutlu

METAR: KDDH 272354Z AUTO 26010G18KT 180V300 10SM OVC049 M03/M11 A2958 RMK AO2 PK WND 27030/2318 SNE22 SLP023 P0000 60000 T10281111 11011 21028 53021

Saat: 19:47 (00:47 UTC)


TAF: eksik

4.000'den fazla havaalanı için hava durumu gözlemleri ve tahminleri (METAR ve TAF raporları).

Kullanılabilir istasyonlar harita üzerinde sarı ve kırmızı noktalarla gösterilir.

İstasyonun adını görmek için fareyi noktanın üzerinde gezdirin.

Sonrasında hava gözlem ve tahminlerini görmek için tıklayın.

Haritayı değiştirmek için: yaklaştırmak için siyah artı işaretli yeşil düğmeye ve uzaklaştırmak için de eksi işaretli düğmeye hızla tıklayın; bitişik haritalar için yeşil okları kullanın.


METAR-TAF: